Zeigler, Illinois
Current Conditions -  °F | °C
As of 10:35 PM on Saturday 22 Nov 2014 (Local Time) from KMWA Reporting Station
Clear Clear  
Wind Chill: 55°   Ceiling: Unl
Heat Index: 55°   Visibility: 10mi
Dew Point: 39°   Wind: 9mph
Humidity: 54%   Direction: 180°S
Pressure: 29.97"   Gusts: NA
Location:  37.9°N, 89.05°W
Report Text: KMWA 230435Z AUTO 18008KT 10SM CLR 13/04 A2997 RMK AO2
Loading
Personal Weather Stations






























Interactive Weather Map New forecast layout! Learn more

10-Day Weather Forecast

Advertisements
Track Severe Weather on mobile